ESKNEPGD

Guest
Details From ESKN - Stockholm Skavsta
To EPGD - LECH WALESA
Flight Number -
Tags decoded
Created
Modified
Stats Distance 283 nm / 524 km
Max Altitude 0 ft / 0 m
Waypoints 4
Social Downloads 2
Likes 0
Share VATSIM

Download

Looking for another format? Having issues loading an existing format? Contact us
Advertisement - Login to hide

Notes

Requested: ESKN TONSA L87 MOVIS N133 DOMAG T240 OGDAV EPGD Unmatched points: L87 MOVIS N133 T240 OGDAV

Route

ESKN TONSA DOMAG EPGD

ID Type Via Altitude Latitude Longitude Leg Dist Tot Dist Heading (true) Name
O ESKN APT - 0 ft / 0 m 58.79044˚ 16.90733˚ - 0 nm - Stockholm Skavsta
TONSA FIX - 0 ft / 0 m 58.60914˚ 16.52025˚ 16 nm 16 nm 228° / 228° -
DOMAG FIX - 0 ft / 0 m 54.97444˚ 17.68556˚ 221 nm 237 nm 170° / 171° -
O EPGD APT - 0 ft / 0 m 54.37617˚ 18.47188˚ 45 nm 283 nm 142° / 143° LECH WALESA

Altitude Profile

Advertisement - Login to hide

Weather


0- 5 10 15 20 25 30 35+ Temperature / ° C

Clouds and Precipitation
Forecast for 2017-12-13 06:00 UTC. Updated 22 minutes ago

Ground ~20,000 ft ~40,000 ft Winds

ESKN

Details ICAO ESKN (NYO)
Name Stockholm Skavsta
Region Sweden
Timezone Europe/Stockholm (UTC+1.0)
Stats Elevation 140 ft / 43 m (AMSL)
Location 58.790439° 16.907328°
Runways 2
Magnetic Variation 5.566° E

METAR

ESKN 130520Z 19005KT 9999 FEW044 M07/M07 Q0998 R26/520143

Decode

TAF

TAF ESKN 122330Z 1300/1324 27010KT CAVOK BECMG 1304/1306 21008KT TEMPO 1305/1309 4000 -SN BKN008 BECMG 1322/1324 RASN

Decode

Departure Runways

ID Width Length Bearing (true) Bearing (mag) Surface Threshold Offset Overrun Length
08 148 ft / 45 m 9,411 ft / 2,869 m 83.05° 77.48° Asphalt 420 ft / 128 m 0 ft / 0 m
16 131 ft / 40 m 6,679 ft / 2,036 m 161.82° 156.25° Asphalt 0 ft / 0 m 0 ft / 0 m
26 148 ft / 45 m 9,411 ft / 2,869 m 263.10° 257.53° Asphalt 0 ft / 0 m 0 ft / 0 m
34 131 ft / 40 m 6,679 ft / 2,036 m 341.83° 336.26° Asphalt 0 ft / 0 m 0 ft / 0 m

EPGD

Details ICAO EPGD (GDN)
Name LECH WALESA
Region Poland
Timezone Europe/Warsaw (UTC+1.0)
Stats Elevation 489 ft / 149 m (AMSL)
Location 54.376167° 18.471884°
Runways 1
Magnetic Variation 5.450° E

METAR

EPGD 130530Z 24013KT 9999 BKN011 00/M02 Q1010

Decode

TAF

TAF TAF EPGD 122330Z 1300/1324 25012KT 9999 BKN025 PROB40 TEMPO 1302/1308 BKN004 BECMG 1309/1312 18012KT

Decode

Destination Runways

ID Width Length Bearing (true) Bearing (mag) Surface Threshold Offset Overrun Length
11 148 ft / 45 m 9,158 ft / 2,791 m 112.96° 107.51° Asphalt 0 ft / 0 m 0 ft / 0 m
29 148 ft / 45 m 9,158 ft / 2,791 m 293.00° 287.55° Asphalt 0 ft / 0 m 0 ft / 0 m

Approach Navaids

Runway Type Ident Frequency Range Bearing (true) Bearing (mag) Slope Elevation
29 Localiser IGDA 110.30 MHz 18 nm / 33 km 292.96° 287.51° - 489 ft / 149 m (AMSL)
29 Glidescope IGDA 110.30 MHz 10 nm / 19 km 292.98° 287.53° 2.90° 489 ft / 149 m (AMSL)
29 DME IGDA 110.30 MHz 18 nm / 33 km - - - 492 ft / 150 m (AMSL)

Popular Alternatives